createdAt,value
2018-03-04T00:00:43.803Z,34.10
2018-03-04T00:03:12.087Z,34.70
2018-03-04T00:05:40.358Z,34.70
2018-03-04T00:08:08.629Z,35.13
2018-03-04T00:10:36.920Z,35.13
2018-03-04T00:13:05.199Z,35.10
2018-03-04T00:15:33.486Z,33.53
2018-03-04T00:18:02.609Z,33.87
2018-03-04T00:20:30.834Z,34.60
2018-03-04T00:22:59.125Z,33.53
2018-03-04T00:25:28.080Z,35.50
2018-03-04T00:27:56.364Z,35.43
2018-03-04T00:30:24.607Z,35.63
2018-03-04T00:32:52.891Z,36.90
2018-03-04T00:35:21.352Z,34.30
2018-03-04T00:37:51.097Z,36.97
2018-03-04T00:40:20.198Z,36.07
2018-03-04T00:42:49.376Z,35.90
2018-03-04T00:45:17.874Z,35.90
2018-03-04T00:47:47.071Z,37.13
2018-03-04T00:50:15.410Z,35.47
2018-03-04T00:52:43.638Z,35.30
2018-03-04T00:55:12.640Z,35.90
2018-03-04T00:57:40.882Z,37.13
2018-03-04T01:00:09.145Z,34.97
2018-03-04T01:02:37.432Z,37.27
2018-03-04T01:05:05.673Z,33.63
2018-03-04T01:07:33.962Z,38.97
2018-03-04T01:10:02.364Z,37.47
2018-03-04T01:12:31.471Z,37.17
2018-03-04T01:14:59.835Z,35.60
2018-03-04T01:17:29.598Z,36.30
2018-03-04T01:19:57.960Z,37.67
2018-03-04T01:22:26.312Z,37.50
2018-03-04T01:24:54.520Z,37.03
2018-03-04T01:27:22.765Z,37.97
2018-03-04T01:29:51.846Z,36.90
2018-03-04T01:32:20.328Z,37.90
2018-03-04T01:34:48.557Z,37.37
2018-03-04T01:37:16.891Z,38.13
2018-03-04T01:39:45.128Z,37.60
2018-03-04T01:42:15.021Z,36.70
2018-03-04T01:44:43.386Z,37.83
2018-03-04T01:47:11.646Z,38.97
2018-03-04T01:49:40.662Z,37.57
2018-03-04T01:52:09.200Z,34.83
2018-03-04T01:54:37.457Z,34.10
2018-03-04T01:57:05.689Z,35.27
2018-03-04T01:59:34.004Z,36.17
2018-03-04T02:02:02.250Z,34.93
2018-03-04T02:04:30.533Z,35.80
2018-03-04T02:06:58.826Z,35.17
2018-03-04T02:09:27.297Z,37.60
2018-03-04T02:11:56.348Z,36.03
2018-03-04T02:14:25.433Z,37.93
2018-03-04T02:16:54.633Z,36.90
2018-03-04T02:19:22.880Z,36.13
2018-03-04T02:21:51.152Z,37.67
2018-03-04T02:24:20.070Z,36.10
2018-03-04T02:26:48.289Z,35.47
2018-03-04T02:29:16.609Z,34.07
2018-03-04T02:31:44.885Z,35.30
2018-03-04T02:34:13.894Z,36.77
2018-03-04T02:36:43.020Z,36.03
2018-03-04T02:39:11.290Z,35.53
2018-03-04T02:41:40.377Z,35.87
2018-03-04T02:44:09.593Z,38.30
2018-03-04T02:46:37.941Z,34.53
2018-03-04T02:49:06.258Z,35.80
2018-03-04T02:51:34.506Z,36.00
2018-03-04T02:54:03.531Z,36.63
2018-03-04T02:56:31.869Z,37.00
2018-03-04T02:59:01.671Z,37.20
2018-03-04T03:01:29.907Z,38.53
2018-03-04T03:03:58.184Z,37.73
2018-03-04T03:06:26.457Z,35.90
2018-03-04T03:08:54.699Z,36.20
2018-03-04T03:11:23.694Z,36.87
2018-03-04T03:13:52.088Z,36.90
2018-03-04T03:16:20.425Z,35.70
2018-03-04T03:18:48.646Z,33.80
2018-03-04T03:21:16.934Z,34.07
2018-03-04T03:23:45.190Z,34.50
2018-03-04T03:26:13.563Z,35.53
2018-03-04T03:28:41.993Z,35.13
2018-03-04T03:31:10.255Z,34.83
2018-03-04T03:33:38.490Z,34.23
2018-03-04T03:36:06.757Z,35.17
2018-03-04T03:38:35.935Z,32.73
2018-03-04T03:41:04.192Z,33.43
2018-03-04T03:43:32.461Z,36.87
2018-03-04T03:46:00.969Z,31.63
2018-03-04T03:48:31.245Z,33.57
2018-03-04T03:50:59.489Z,33.33
2018-03-04T03:53:28.667Z,34.80
2018-03-04T03:55:56.925Z,31.53
2018-03-04T03:58:25.745Z,35.50
2018-03-04T04:00:54.894Z,31.70
2018-03-04T04:03:23.166Z,35.60
2018-03-04T04:05:51.415Z,33.80
2018-03-04T04:08:19.708Z,31.17
2018-03-04T04:10:48.777Z,33.73
2018-03-04T04:13:17.036Z,33.53
2018-03-04T04:15:45.306Z,34.30
2018-03-04T04:18:13.595Z,33.97
2018-03-04T04:20:42.649Z,33.90
2018-03-04T04:23:11.669Z,31.57
2018-03-04T04:25:39.924Z,30.20
2018-03-04T04:28:09.069Z,32.57
2018-03-04T04:30:37.345Z,34.27
2018-03-04T04:33:05.633Z,32.77
2018-03-04T04:35:34.130Z,31.20
2018-03-04T04:38:03.272Z,32.77
2018-03-04T04:40:31.881Z,30.63
2018-03-04T04:43:00.911Z,30.73
2018-03-04T04:45:29.348Z,30.80
2018-03-04T04:47:57.594Z,31.00
2018-03-04T04:50:25.845Z,31.63
2018-03-04T04:52:54.093Z,32.00
2018-03-04T04:55:22.345Z,31.07
2018-03-04T04:57:51.371Z,31.40
2018-03-04T05:00:19.730Z,34.00
2018-03-04T05:02:48.106Z,29.43
2018-03-04T05:05:16.342Z,30.67
2018-03-04T05:07:45.448Z,30.60
2018-03-04T05:10:15.262Z,27.67
2018-03-04T05:12:43.490Z,30.00
2018-03-04T05:15:11.820Z,29.23
2018-03-04T05:17:40.957Z,28.80
2018-03-04T05:20:09.214Z,28.20
2018-03-04T05:22:37.477Z,28.60
2018-03-04T05:25:06.526Z,27.40
2018-03-04T05:27:35.491Z,28.73
2018-03-04T05:30:03.741Z,30.10
2018-03-04T05:32:32.969Z,29.07
2018-03-04T05:35:01.380Z,26.53
2018-03-04T05:37:29.665Z,28.70
2018-03-04T05:39:57.921Z,27.33
2018-03-04T05:42:26.174Z,28.93
2018-03-04T05:44:55.378Z,29.40
2018-03-04T05:47:23.738Z,31.17
2018-03-04T05:49:51.987Z,28.70
2018-03-04T05:52:20.249Z,29.43
2018-03-04T05:54:48.575Z,30.27
2018-03-04T05:57:16.818Z,26.33
2018-03-04T05:59:45.054Z,28.17
2018-03-04T06:02:13.473Z,28.37
2018-03-04T06:04:42.646Z,27.83
2018-03-04T06:07:11.866Z,28.97
2018-03-04T06:09:40.093Z,28.63
2018-03-04T06:12:08.416Z,29.43
2018-03-04T06:14:36.658Z,27.60
2018-03-04T06:17:04.923Z,27.13
2018-03-04T06:19:33.282Z,29.37
2018-03-04T06:22:03.365Z,28.80
2018-03-04T06:24:31.586Z,27.63
2018-03-04T06:26:59.853Z,27.73
2018-03-04T06:29:28.098Z,28.77
2018-03-04T06:31:56.361Z,29.27
2018-03-04T06:34:24.625Z,29.43
2018-03-04T06:36:52.878Z,26.97
2018-03-04T06:39:21.242Z,28.90
2018-03-04T06:41:50.309Z,28.37
2018-03-04T06:44:19.428Z,29.87
2018-03-04T06:46:47.711Z,29.80
2018-03-04T06:49:16.212Z,30.57
2018-03-04T06:51:44.476Z,30.87
2018-03-04T06:54:12.724Z,30.47
2018-03-04T06:56:40.997Z,29.87
2018-03-04T06:59:10.014Z,30.53
2018-03-04T07:01:38.977Z,29.93
2018-03-04T07:04:07.977Z,28.43
2018-03-04T07:06:36.386Z,29.80
2018-03-04T07:09:04.719Z,30.93
2018-03-04T07:11:32.973Z,30.40
2018-03-04T07:14:01.471Z,31.90
2018-03-04T07:16:29.719Z,29.80
2018-03-04T07:18:58.786Z,29.70
2018-03-04T07:21:27.287Z,31.10
2018-03-04T07:23:55.597Z,30.53
2018-03-04T07:26:23.833Z,29.87
2018-03-04T07:28:52.105Z,31.70
2018-03-04T07:31:20.338Z,32.27
2018-03-04T07:33:50.120Z,31.80
2018-03-04T07:36:18.382Z,30.10
2018-03-04T07:38:46.653Z,31.00
2018-03-04T07:41:14.965Z,32.23
2018-03-04T07:43:43.200Z,30.57
2018-03-04T07:46:11.567Z,29.83
2018-03-04T07:48:39.905Z,30.67
2018-03-04T07:51:08.210Z,31.20
2018-03-04T07:53:36.507Z,29.13
2018-03-04T07:56:04.767Z,29.33
2018-03-04T07:58:33.111Z,28.50
2018-03-04T08:01:01.354Z,31.93
2018-03-04T08:03:29.613Z,27.70
2018-03-04T08:05:58.886Z,24.03
2018-03-04T08:08:28.708Z,27.40
2018-03-04T08:10:57.970Z,25.40
2018-03-04T08:13:26.453Z,26.77
2018-03-04T08:15:55.772Z,28.40
2018-03-04T08:18:25.253Z,25.63
2018-03-04T08:20:53.540Z,25.87
2018-03-04T08:23:22.596Z,29.10
2018-03-04T08:25:50.946Z,28.70
2018-03-04T08:28:30.192Z,26.77
2018-03-04T08:30:58.395Z,32.80
2018-03-04T08:33:26.701Z,30.37
2018-03-04T08:35:55.743Z,29.10
2018-03-04T08:38:24.115Z,30.80
2018-03-04T08:40:52.528Z,27.10
2018-03-04T08:43:20.800Z,31.20
2018-03-04T08:45:49.134Z,29.40
2018-03-04T08:48:18.134Z,27.57
2018-03-04T08:50:46.443Z,28.13
2018-03-04T08:53:14.672Z,29.03
2018-03-04T08:55:42.937Z,27.70
2018-03-04T08:58:12.042Z,27.73
2018-03-04T09:00:40.338Z,28.80
2018-03-04T09:03:08.641Z,27.77
2018-03-04T09:05:36.891Z,26.33
2018-03-04T09:08:05.216Z,26.30
2018-03-04T09:10:33.545Z,26.67
2018-03-04T09:13:02.699Z,27.83
2018-03-04T09:15:32.653Z,26.50
2018-03-04T09:18:00.990Z,25.17
2018-03-04T09:20:29.224Z,26.03
2018-03-04T09:22:57.528Z,23.57
2018-03-04T09:25:26.736Z,24.43
2018-03-04T09:27:55.120Z,26.90
2018-03-04T09:30:24.159Z,24.20
2018-03-04T09:32:52.426Z,22.93
2018-03-04T09:35:20.730Z,22.33
2018-03-04T09:37:48.968Z,21.63
2018-03-04T09:40:17.206Z,19.90
2018-03-04T09:42:45.608Z,21.80
2018-03-04T09:45:14.548Z,23.73
2018-03-04T09:47:43.562Z,22.57
2018-03-04T09:50:11.814Z,18.90
2018-03-04T09:52:40.263Z,22.23
2018-03-04T09:55:09.413Z,21.07
2018-03-04T09:57:37.679Z,20.50
2018-03-04T10:00:06.110Z,19.50
2018-03-04T10:02:35.214Z,21.87
2018-03-04T10:05:03.586Z,20.53
2018-03-04T10:07:32.681Z,20.63
2018-03-04T10:10:01.714Z,20.07
2018-03-04T10:12:30.039Z,19.60
2018-03-04T10:14:59.129Z,19.80
2018-03-04T10:17:27.377Z,19.17
2018-03-04T10:19:55.699Z,18.60
2018-03-04T10:22:24.818Z,17.87
2018-03-04T10:24:53.420Z,18.37
2018-03-04T10:27:21.801Z,18.40
2018-03-04T10:29:50.068Z,18.77
2018-03-04T10:32:19.386Z,18.13
2018-03-04T10:34:47.709Z,19.50
2018-03-04T10:37:16.005Z,19.27
2018-03-04T10:39:45.180Z,17.47
2018-03-04T10:42:13.549Z,18.03
2018-03-04T10:44:41.957Z,17.53
2018-03-04T10:47:10.238Z,17.80
2018-03-04T10:49:38.551Z,17.97
2018-03-04T10:52:06.810Z,16.63
2018-03-04T10:54:35.106Z,17.67
2018-03-04T10:57:03.405Z,15.20
2018-03-04T10:59:31.831Z,17.73
2018-03-04T11:02:04.029Z,16.40
2018-03-04T11:04:33.210Z,14.93
2018-03-04T11:07:02.321Z,15.60
2018-03-04T11:09:30.653Z,16.33
2018-03-04T11:11:58.930Z,16.03
2018-03-04T11:14:27.194Z,14.40
2018-03-04T11:16:56.312Z,13.40
2018-03-04T11:19:24.642Z,15.20
2018-03-04T11:21:52.925Z,14.30
2018-03-04T11:24:21.205Z,13.33
2018-03-04T11:26:49.489Z,15.10
2018-03-04T11:29:18.553Z,14.27
2018-03-04T11:31:46.797Z,12.93
2018-03-04T11:34:15.063Z,13.90
2018-03-04T11:36:44.106Z,14.77
2018-03-04T11:39:13.573Z,14.00
2018-03-04T11:41:43.894Z,14.60
2018-03-04T11:44:12.162Z,13.30
2018-03-04T11:46:40.735Z,12.67
2018-03-04T11:49:08.985Z,14.17
2018-03-04T11:51:37.295Z,13.37
2018-03-04T11:54:05.550Z,12.70
2018-03-04T11:56:34.732Z,12.90
2018-03-04T11:59:02.973Z,13.33
2018-03-04T12:01:31.225Z,12.40
2018-03-04T12:03:59.524Z,14.37
2018-03-04T12:06:27.759Z,13.50
2018-03-04T12:08:56.864Z,13.10
2018-03-04T12:11:25.706Z,12.47
2018-03-04T12:13:54.807Z,12.73
2018-03-04T12:16:23.296Z,13.77
2018-03-04T12:18:51.539Z,14.23
2018-03-04T12:21:19.783Z,11.00
2018-03-04T12:23:48.051Z,13.87
2018-03-04T12:26:16.309Z,12.80
2018-03-04T12:28:45.444Z,12.77
2018-03-04T12:31:13.703Z,11.80
2018-03-04T12:33:41.994Z,12.37
2018-03-04T12:36:10.327Z,11.80
2018-03-04T12:38:38.624Z,11.00
2018-03-04T12:41:07.086Z,11.83
2018-03-04T12:43:35.325Z,14.37
2018-03-04T12:46:03.572Z,12.53
2018-03-04T12:48:31.846Z,12.53
2018-03-04T12:51:00.109Z,11.80
2018-03-04T12:53:29.157Z,11.10
2018-03-04T12:55:57.596Z,9.93
2018-03-04T12:58:25.985Z,10.27
2018-03-04T13:00:54.230Z,11.20
2018-03-04T13:03:23.374Z,11.03
2018-03-04T13:05:51.630Z,10.30
2018-03-04T13:08:21.436Z,7.87
2018-03-04T13:10:49.827Z,7.50
2018-03-04T13:13:18.169Z,8.23
2018-03-04T13:15:46.553Z,7.07
2018-03-04T13:18:16.015Z,5.90
2018-03-04T13:20:44.435Z,7.27
2018-03-04T13:23:14.368Z,7.00
2018-03-04T13:25:42.578Z,7.37
2018-03-04T13:28:10.863Z,7.30
2018-03-04T13:30:39.995Z,6.57
2018-03-04T13:33:08.376Z,6.13
2018-03-04T13:35:37.516Z,6.43
2018-03-04T13:38:05.959Z,5.83
2018-03-04T13:40:35.369Z,6.20
2018-03-04T13:43:04.233Z,6.07
2018-03-04T13:45:32.445Z,4.93
2018-03-04T13:48:00.703Z,5.17
2018-03-04T13:50:29.776Z,3.80
2018-03-04T13:52:58.090Z,5.23
2018-03-04T13:55:26.358Z,5.47
2018-03-04T13:57:54.707Z,4.90
2018-03-04T14:00:22.962Z,5.93
2018-03-04T14:02:51.277Z,5.33
2018-03-04T14:05:19.552Z,6.27
2018-03-04T14:07:47.886Z,7.87
2018-03-04T14:10:16.102Z,7.03
2018-03-04T14:12:44.324Z,7.63
2018-03-04T14:15:13.257Z,9.47
2018-03-04T14:17:41.471Z,8.33
2018-03-04T14:20:09.722Z,8.00
2018-03-04T14:22:38.880Z,9.27
2018-03-04T14:25:07.553Z,8.90
2018-03-04T14:27:36.891Z,8.50
2018-03-04T14:30:07.227Z,8.50
2018-03-04T14:32:37.333Z,9.90
2018-03-04T14:35:05.565Z,9.67
2018-03-04T14:37:33.799Z,8.10
2018-03-04T14:40:02.837Z,7.83
2018-03-04T14:42:31.178Z,8.63
2018-03-04T14:45:00.301Z,10.57
2018-03-04T14:47:28.543Z,9.03
2018-03-04T14:49:57.671Z,10.13
2018-03-04T14:52:26.042Z,10.73
2018-03-04T14:54:54.282Z,10.67
2018-03-04T14:57:22.861Z,12.30
2018-03-04T14:59:51.159Z,10.67
2018-03-04T15:02:20.190Z,10.77
2018-03-04T15:04:48.456Z,11.17
2018-03-04T15:07:16.730Z,11.23
2018-03-04T15:09:45.051Z,11.13
2018-03-04T15:12:13.344Z,11.20
2018-03-04T15:14:41.566Z,10.33
2018-03-04T15:17:09.861Z,12.77
2018-03-04T15:19:38.098Z,12.93
2018-03-04T15:22:06.613Z,12.10
2018-03-04T15:24:34.885Z,12.00
2018-03-04T15:27:03.122Z,11.40
2018-03-04T15:29:31.429Z,11.97
2018-03-04T15:31:59.721Z,11.53
2018-03-04T15:34:28.176Z,11.00
2018-03-04T15:36:56.549Z,12.00
2018-03-04T15:39:24.896Z,11.63
2018-03-04T15:41:53.174Z,11.30
2018-03-04T15:44:21.857Z,12.23
2018-03-04T15:46:50.081Z,23.60
2018-03-04T15:49:18.354Z,15.33
2018-03-04T15:51:47.563Z,11.27
2018-03-04T15:54:15.934Z,10.97
2018-03-04T15:56:44.209Z,10.67
2018-03-04T15:59:12.486Z,9.90
2018-03-04T16:01:40.759Z,11.87
2018-03-04T16:04:09.134Z,12.77
2018-03-04T16:06:37.494Z,11.23
2018-03-04T16:09:05.774Z,9.53
2018-03-04T16:11:34.048Z,10.90
2018-03-04T16:14:03.162Z,9.73
2018-03-04T16:16:31.390Z,9.93
2018-03-04T16:18:59.718Z,9.67
2018-03-04T16:21:28.214Z,10.13
2018-03-04T16:23:57.297Z,8.70
2018-03-04T16:26:25.572Z,9.73
2018-03-04T16:28:54.081Z,8.33
2018-03-04T16:31:23.897Z,8.10
2018-03-04T16:33:53.112Z,8.50
2018-03-04T16:36:21.352Z,8.07
2018-03-04T16:38:49.643Z,7.73
2018-03-04T16:41:17.878Z,7.57
2018-03-04T16:43:46.129Z,7.77
2018-03-04T16:46:15.177Z,7.97
2018-03-04T16:48:43.390Z,7.73
2018-03-04T16:51:12.366Z,7.57
2018-03-04T16:53:40.769Z,7.53
2018-03-04T16:56:09.109Z,6.93
2018-03-04T16:58:37.365Z,7.60
2018-03-04T17:01:06.444Z,7.73
2018-03-04T17:03:35.541Z,7.83
2018-03-04T17:06:03.785Z,7.00
2018-03-04T17:08:32.066Z,7.50
2018-03-04T17:11:01.091Z,7.07
2018-03-04T17:13:29.450Z,7.53
2018-03-04T17:15:58.007Z,6.97
2018-03-04T17:18:27.112Z,7.55
2018-03-04T17:20:57.020Z,7.80
2018-03-04T17:23:25.303Z,8.33
2018-03-04T17:25:53.541Z,7.90
2018-03-04T17:28:21.989Z,7.90
2018-03-04T17:30:51.006Z,7.73
2018-03-04T17:33:19.247Z,7.97
2018-03-04T17:35:47.503Z,8.60
2018-03-04T17:38:15.976Z,8.20
2018-03-04T17:40:45.726Z,9.40
2018-03-04T17:43:14.071Z,9.20
2018-03-04T17:45:43.637Z,9.47
2018-03-04T17:48:12.124Z,11.20
2018-03-04T17:50:40.418Z,9.50
2018-03-04T17:53:08.654Z,8.73
2018-03-04T17:55:36.918Z,9.40
2018-03-04T17:58:05.463Z,8.80
2018-03-04T18:00:36.408Z,9.37
2018-03-04T18:03:10.795Z,10.97
2018-03-04T18:05:39.049Z,11.77
2018-03-04T18:08:07.376Z,11.63
2018-03-04T18:10:35.696Z,12.70
2018-03-04T18:13:05.683Z,10.50
2018-03-04T18:15:34.800Z,13.77
2018-03-04T18:18:04.177Z,13.20
2018-03-04T18:20:32.528Z,14.10
2018-03-04T18:23:02.688Z,16.70
2018-03-04T18:25:31.835Z,17.30
2018-03-04T18:28:02.594Z,16.93
2018-03-04T18:30:31.080Z,18.83
2018-03-04T18:32:59.564Z,17.43
2018-03-04T18:35:27.942Z,19.77
2018-03-04T18:37:57.311Z,20.97
2018-03-04T18:40:27.178Z,20.73
2018-03-04T18:42:55.531Z,20.17
2018-03-04T18:45:23.806Z,18.97
2018-03-04T18:47:52.221Z,20.27
2018-03-04T18:50:20.724Z,19.40
2018-03-04T18:52:48.980Z,17.53
2018-03-04T18:55:18.065Z,17.50
2018-03-04T18:57:47.911Z,19.03
2018-03-04T19:00:16.184Z,17.27
2018-03-04T19:02:44.452Z,18.33
2018-03-04T19:05:12.767Z,17.73
2018-03-04T19:07:41.096Z,16.33
2018-03-04T19:10:09.461Z,17.03
2018-03-04T19:12:37.876Z,16.43
2018-03-04T19:15:06.130Z,18.03
2018-03-04T19:17:34.455Z,17.30
2018-03-04T19:20:02.748Z,16.10
2018-03-04T19:22:31.009Z,14.67
2018-03-04T19:25:01.765Z,17.60
2018-03-04T19:27:31.713Z,15.80
2018-03-04T19:30:03.762Z,14.93
2018-03-04T19:32:32.162Z,15.87
2018-03-04T19:35:01.237Z,15.87
2018-03-04T19:37:31.536Z,16.70
2018-03-04T19:40:01.445Z,16.33
2018-03-04T19:42:31.313Z,17.17
2018-03-04T19:44:59.639Z,16.60
2018-03-04T19:47:27.849Z,17.90
2018-03-04T19:49:56.741Z,17.10
2018-03-04T19:52:25.048Z,17.17
2018-03-04T19:54:54.316Z,17.83
2018-03-04T19:57:22.586Z,17.73
2018-03-04T19:59:50.954Z,16.23
2018-03-04T20:02:19.238Z,17.90
2018-03-04T20:04:47.555Z,20.60
2018-03-04T20:07:15.814Z,20.50
2018-03-04T20:09:44.121Z,17.83
2018-03-04T20:12:12.379Z,18.73
2018-03-04T20:14:40.775Z,19.63
2018-03-04T20:17:09.095Z,18.43
2018-03-04T20:19:38.211Z,19.60
2018-03-04T20:22:06.652Z,19.33
2018-03-04T20:24:35.659Z,20.80
2018-03-04T20:27:04.830Z,20.10
2018-03-04T20:29:33.114Z,21.27
2018-03-04T20:32:01.810Z,20.27
2018-03-04T20:34:30.094Z,20.57
2018-03-04T20:36:58.421Z,19.30
2018-03-04T20:39:26.652Z,20.17
2018-03-04T20:41:55.729Z,19.93
2018-03-04T20:44:24.038Z,19.17
2018-03-04T20:46:53.052Z,19.47
2018-03-04T20:49:21.431Z,18.80
2018-03-04T20:51:49.805Z,20.00
2018-03-04T20:54:18.113Z,19.60
2018-03-04T20:56:46.540Z,19.43
2018-03-04T20:59:15.638Z,18.83
2018-03-04T21:01:44.053Z,18.70
2018-03-04T21:04:12.621Z,20.40
2018-03-04T21:06:40.873Z,20.90
2018-03-04T21:09:09.145Z,17.80
2018-03-04T21:11:37.459Z,18.53
2018-03-04T21:14:05.719Z,18.43
2018-03-04T21:16:34.056Z,19.00
2018-03-04T21:19:02.354Z,18.87
2018-03-04T21:21:31.359Z,18.50
2018-03-04T21:23:59.639Z,18.83
2018-03-04T21:26:27.966Z,18.57
2018-03-04T21:28:56.394Z,18.20
2018-03-04T21:31:25.462Z,18.67
2018-03-04T21:33:53.717Z,17.50
2018-03-04T21:36:22.084Z,18.80
2018-03-04T21:38:51.142Z,18.00
2018-03-04T21:41:19.429Z,19.33
2018-03-04T21:43:47.667Z,17.80
2018-03-04T21:46:16.806Z,19.00
2018-03-04T21:48:45.074Z,17.87
2018-03-04T21:51:13.327Z,18.60
2018-03-04T21:53:42.474Z,18.20
2018-03-04T21:56:10.765Z,17.93
2018-03-04T21:58:43.090Z,18.40
2018-03-04T22:01:11.413Z,17.97
2018-03-04T22:03:40.724Z,17.43
2018-03-04T22:06:10.753Z,18.20
2018-03-04T22:08:39.925Z,17.80
2018-03-04T22:11:09.168Z,17.90
2018-03-04T22:13:37.423Z,18.33
2018-03-04T22:16:06.422Z,18.30
2018-03-04T22:18:35.605Z,16.17
2018-03-04T22:21:03.806Z,16.87
2018-03-04T22:23:32.114Z,18.03
2018-03-04T22:26:02.192Z,17.67
2018-03-04T22:28:31.457Z,17.47
2018-03-04T22:30:59.713Z,15.90
2018-03-04T22:33:28.340Z,15.20
2018-03-04T22:35:56.560Z,17.70
2018-03-04T22:38:24.891Z,15.17
2018-03-04T22:40:53.127Z,15.70
2018-03-04T22:43:22.421Z,15.27
2018-03-04T22:45:50.669Z,15.43
2018-03-04T22:48:18.949Z,15.10
2018-03-04T22:50:47.196Z,14.03
2018-03-04T22:53:16.336Z,14.93
2018-03-04T22:55:44.622Z,13.80
2018-03-04T22:58:12.893Z,13.33
2018-03-04T23:00:41.664Z,13.47
2018-03-04T23:03:09.948Z,11.83
2018-03-04T23:05:38.298Z,13.03
2018-03-04T23:08:07.526Z,12.33
2018-03-04T23:10:35.877Z,13.10
2018-03-04T23:13:04.161Z,12.70
2018-03-04T23:15:32.440Z,11.50
2018-03-04T23:18:01.445Z,10.50
2018-03-04T23:20:30.592Z,11.07
2018-03-04T23:22:58.890Z,12.20
2018-03-04T23:25:27.258Z,10.30
2018-03-04T23:27:55.484Z,9.80
2018-03-04T23:30:23.715Z,11.20
2018-03-04T23:32:52.770Z,9.13
2018-03-04T23:35:21.009Z,10.43
2018-03-04T23:37:49.422Z,11.00
2018-03-04T23:40:17.685Z,9.80
2018-03-04T23:42:46.037Z,9.63
2018-03-04T23:45:14.387Z,9.67
2018-03-04T23:47:44.307Z,8.57
2018-03-04T23:50:12.555Z,8.77
2018-03-04T23:52:40.781Z,8.47
2018-03-04T23:55:09.057Z,7.67
2018-03-04T23:57:38.800Z,9.07
